sensor_id;sensor_type;location;lat;lon;timestamp;pressure;altitude;pressure_sealevel;temperature;humidity
54924;BME280;40825;52.270;20.984;2022-07-18T00:00:01;101357.56;;;17.02;52.80
54924;BME280;40825;52.270;20.984;2022-07-18T00:00:22;101358.10;;;17.02;52.83
54924;BME280;40825;52.270;20.984;2022-07-18T00:00:58;101359.66;;;16.98;52.73
54924;BME280;40825;52.270;20.984;2022-07-18T00:01:20;101358.63;;;16.96;52.90
54924;BME280;40825;52.270;20.984;2022-07-18T00:01:41;101359.38;;;16.96;52.87
54924;BME280;40825;52.270;20.984;2022-07-18T00:02:03;101359.12;;;16.97;52.97
54924;BME280;40825;52.270;20.984;2022-07-18T00:02:25;101358.24;;;16.97;52.97
54924;BME280;40825;52.270;20.984;2022-07-18T00:02:47;101355.34;;;16.97;52.94
54924;BME280;40825;52.270;20.984;2022-07-18T00:03:08;101355.73;;;16.97;52.94
54924;BME280;40825;52.270;20.984;2022-07-18T00:03:30;101356.84;;;16.98;52.94
54924;BME280;40825;52.270;20.984;2022-07-18T00:03:51;101357.25;;;16.98;52.93
54924;BME280;40825;52.270;20.984;2022-07-18T00:04:13;101356.11;;;16.99;52.90
54924;BME280;40825;52.270;20.984;2022-07-18T00:04:34;101353.26;;;16.99;52.87
54924;BME280;40825;52.270;20.984;2022-07-18T00:04:56;101352.27;;;16.98;52.91
54924;BME280;40825;52.270;20.984;2022-07-18T00:05:18;101353.48;;;16.97;52.91
54924;BME280;40825;52.270;20.984;2022-07-18T00:05:39;101348.21;;;16.96;52.92
54924;BME280;40825;52.270;20.984;2022-07-18T00:06:01;101352.95;;;16.96;52.92
54924;BME280;40825;52.270;20.984;2022-07-18T00:06:22;101354.10;;;16.95;52.84
54924;BME280;40825;52.270;20.984;2022-07-18T00:06:44;101353.52;;;16.94;52.93
54924;BME280;40825;52.270;20.984;2022-07-18T00:07:05;101353.60;;;16.94;53.05
54924;BME280;40825;52.270;20.984;2022-07-18T00:07:27;101353.14;;;16.93;52.95
54924;BME280;40825;52.270;20.984;2022-07-18T00:07:49;101354.40;;;16.93;53.15
54924;BME280;40825;52.270;20.984;2022-07-18T00:08:10;101354.52;;;16.94;53.13
54924;BME280;40825;52.270;20.984;2022-07-18T00:08:32;101355.11;;;16.94;53.21
54924;BME280;40825;52.270;20.984;2022-07-18T00:08:54;101353.31;;;16.93;53.11
54924;BME280;40825;52.270;20.984;2022-07-18T00:09:15;101353.23;;;16.94;53.20
54924;BME280;40825;52.270;20.984;2022-07-18T00:09:40;101354.72;;;16.93;53.11
54924;BME280;40825;52.270;20.984;2022-07-18T00:10:02;101356.97;;;16.93;53.25
54924;BME280;40825;52.270;20.984;2022-07-18T00:10:24;101354.23;;;16.92;53.17
54924;BME280;40825;52.270;20.984;2022-07-18T00:10:46;101354.23;;;16.90;53.26
54924;BME280;40825;52.270;20.984;2022-07-18T00:11:07;101357.35;;;16.90;53.27
54924;BME280;40825;52.270;20.984;2022-07-18T00:11:30;101354.98;;;16.90;53.30
54924;BME280;40825;52.270;20.984;2022-07-18T00:11:52;101358.68;;;16.89;53.28
54924;BME280;40825;52.270;20.984;2022-07-18T00:12:13;101353.94;;;16.87;53.31
54924;BME280;40825;52.270;20.984;2022-07-18T00:12:35;101360.00;;;16.86;53.34
54924;BME280;40825;52.270;20.984;2022-07-18T00:12:57;101357.77;;;16.86;53.28
54924;BME280;40825;52.270;20.984;2022-07-18T00:13:18;101358.27;;;16.84;53.43
54924;BME280;40825;52.270;20.984;2022-07-18T00:13:40;101356.56;;;16.84;53.35
54924;BME280;40825;52.270;20.984;2022-07-18T00:14:02;101356.98;;;16.84;53.43
54924;BME280;40825;52.270;20.984;2022-07-18T00:14:24;101357.14;;;16.84;53.40
54924;BME280;40825;52.270;20.984;2022-07-18T00:14:46;101357.81;;;16.83;53.38
54924;BME280;40825;52.270;20.984;2022-07-18T00:15:08;101358.17;;;16.82;53.47
54924;BME280;40825;52.270;20.984;2022-07-18T00:15:31;101359.05;;;16.80;53.55
54924;BME280;40825;52.270;20.984;2022-07-18T00:15:52;101356.98;;;16.78;53.59
54924;BME280;40825;52.270;20.984;2022-07-18T00:16:14;101356.69;;;16.77;53.69
54924;BME280;40825;52.270;20.984;2022-07-18T00:16:36;101353.13;;;16.77;53.81
54924;BME280;40825;52.270;20.984;2022-07-18T00:16:57;101360.85;;;16.77;53.87
54924;BME280;40825;52.270;20.984;2022-07-18T00:17:20;101359.01;;;16.77;53.95
54924;BME280;40825;52.270;20.984;2022-07-18T00:17:41;101354.66;;;16.77;54.02
54924;BME280;40825;52.270;20.984;2022-07-18T00:18:03;101358.35;;;16.78;54.08
54924;BME280;40825;52.270;20.984;2022-07-18T00:18:25;101360.30;;;16.78;54.06
54924;BME280;40825;52.270;20.984;2022-07-18T00:18:46;101358.35;;;16.78;54.13
54924;BME280;40825;52.270;20.984;2022-07-18T00:19:08;101355.90;;;16.77;54.09
54924;BME280;40825;52.270;20.984;2022-07-18T00:19:30;101358.80;;;16.77;54.24
54924;BME280;40825;52.270;20.984;2022-07-18T00:19:51;101361.17;;;16.77;54.14
54924;BME280;40825;52.270;20.984;2022-07-18T00:20:13;101361.00;;;16.77;54.20
54924;BME280;40825;52.270;20.984;2022-07-18T00:20:35;101361.88;;;16.77;54.26
54924;BME280;40825;52.270;20.984;2022-07-18T00:20:57;101361.13;;;16.77;54.21
54924;BME280;40825;52.270;20.984;2022-07-18T00:21:18;101359.63;;;16.78;54.13
54924;BME280;40825;52.270;20.984;2022-07-18T00:21:40;101360.34;;;16.78;54.20
54924;BME280;40825;52.270;20.984;2022-07-18T00:22:02;101360.17;;;16.78;54.12
54924;BME280;40825;52.270;20.984;2022-07-18T00:22:24;101361.16;;;16.77;54.13
54924;BME280;40825;52.270;20.984;2022-07-18T00:22:46;101360.05;;;16.77;54.12
54924;BME280;40825;52.270;20.984;2022-07-18T00:23:08;101359.48;;;16.77;54.11
54924;BME280;40825;52.270;20.984;2022-07-18T00:23:29;101361.73;;;16.76;54.10
54924;BME280;40825;52.270;20.984;2022-07-18T00:23:51;101359.55;;;16.75;54.14
54924;BME280;40825;52.270;20.984;2022-07-18T00:24:12;101360.31;;;16.74;54.07
54924;BME280;40825;52.270;20.984;2022-07-18T00:24:34;101363.70;;;16.75;54.10
54924;BME280;40825;52.270;20.984;2022-07-18T00:24:55;101361.23;;;16.73;54.08
54924;BME280;40825;52.270;20.984;2022-07-18T00:25:17;101362.35;;;16.73;54.14
54924;BME280;40825;52.270;20.984;2022-07-18T00:25:38;101359.52;;;16.72;54.18
54924;BME280;40825;52.270;20.984;2022-07-18T00:26:00;101359.36;;;16.72;54.07
54924;BME280;40825;52.270;20.984;2022-07-18T00:26:22;101358.27;;;16.71;54.11
54924;BME280;40825;52.270;20.984;2022-07-18T00:26:43;101359.89;;;16.70;54.02
54924;BME280;40825;52.270;20.984;2022-07-18T00:27:05;101361.60;;;16.69;54.13
54924;BME280;40825;52.270;20.984;2022-07-18T00:27:28;101363.13;;;16.68;54.15
54924;BME280;40825;52.270;20.984;2022-07-18T00:27:50;101358.53;;;16.68;54.18
54924;BME280;40825;52.270;20.984;2022-07-18T00:28:11;101359.15;;;16.67;54.28
54924;BME280;40825;52.270;20.984;2022-07-18T00:28:33;101357.70;;;16.66;54.24
54924;BME280;40825;52.270;20.984;2022-07-18T00:28:54;101358.90;;;16.65;54.31
54924;BME280;40825;52.270;20.984;2022-07-18T00:29:16;101357.70;;;16.64;54.37
54924;BME280;40825;52.270;20.984;2022-07-18T00:29:38;101359.20;;;16.64;54.37
54924;BME280;40825;52.270;20.984;2022-07-18T00:30:00;101358.39;;;16.63;54.29
54924;BME280;40825;52.270;20.984;2022-07-18T00:30:22;101358.81;;;16.63;54.40
54924;BME280;40825;52.270;20.984;2022-07-18T00:30:43;101358.10;;;16.63;54.39
54924;BME280;40825;52.270;20.984;2022-07-18T00:31:05;101354.92;;;16.62;54.40
54924;BME280;40825;52.270;20.984;2022-07-18T00:31:26;101352.39;;;16.61;54.43
54924;BME280;40825;52.270;20.984;2022-07-18T00:31:48;101356.41;;;16.61;54.48
54924;BME280;40825;52.270;20.984;2022-07-18T00:32:09;101356.17;;;16.60;54.49
54924;BME280;40825;52.270;20.984;2022-07-18T00:32:31;101355.58;;;16.59;54.45
54924;BME280;40825;52.270;20.984;2022-07-18T00:32:52;101359.08;;;16.57;54.49
54924;BME280;40825;52.270;20.984;2022-07-18T00:33:14;101355.13;;;16.56;54.54
54924;BME280;40825;52.270;20.984;2022-07-18T00:33:35;101355.71;;;16.55;54.58
54924;BME280;40825;52.270;20.984;2022-07-18T00:33:57;101356.28;;;16.55;54.66
54924;BME280;40825;52.270;20.984;2022-07-18T00:34:18;101357.23;;;16.55;54.56
54924;BME280;40825;52.270;20.984;2022-07-18T00:34:40;101360.02;;;16.54;54.60
54924;BME280;40825;52.270;20.984;2022-07-18T00:35:02;101355.59;;;16.53;54.73
54924;BME280;40825;52.270;20.984;2022-07-18T00:35:24;101354.17;;;16.53;54.62
54924;BME280;40825;52.270;20.984;2022-07-18T00:35:46;101357.36;;;16.54;54.72
54924;BME280;40825;52.270;20.984;2022-07-18T00:36:07;101359.61;;;16.53;54.74
54924;BME280;40825;52.270;20.984;2022-07-18T00:36:30;101357.20;;;16.54;54.78
54924;BME280;40825;52.270;20.984;2022-07-18T00:36:51;101356.88;;;16.53;54.93
54924;BME280;40825;52.270;20.984;2022-07-18T00:37:13;101356.92;;;16.53;54.93
54924;BME280;40825;52.270;20.984;2022-07-18T00:37:34;101358.57;;;16.53;54.88
54924;BME280;40825;52.270;20.984;2022-07-18T00:37:56;101356.00;;;16.53;54.98
54924;BME280;40825;52.270;20.984;2022-07-18T00:38:18;101356.98;;;16.54;55.02
54924;BME280;40825;52.270;20.984;2022-07-18T00:38:39;101355.74;;;16.54;55.01
54924;BME280;40825;52.270;20.984;2022-07-18T00:39:02;101354.13;;;16.54;55.18
54924;BME280;40825;52.270;20.984;2022-07-18T00:39:25;101355.84;;;16.53;55.17
54924;BME280;40825;52.270;20.984;2022-07-18T00:39:47;101351.60;;;16.51;55.29
54924;BME280;40825;52.270;20.984;2022-07-18T00:40:09;101354.72;;;16.50;55.28
54924;BME280;40825;52.270;20.984;2022-07-18T00:40:32;101354.23;;;16.49;55.21
54924;BME280;40825;52.270;20.984;2022-07-18T00:40:54;101355.55;;;16.48;55.35
54924;BME280;40825;52.270;20.984;2022-07-18T00:41:16;101353.81;;;16.48;55.34
54924;BME280;40825;52.270;20.984;2022-07-18T00:41:38;101357.42;;;16.48;55.30
54924;BME280;40825;52.270;20.984;2022-07-18T00:42:01;101359.33;;;16.47;55.30
54924;BME280;40825;52.270;20.984;2022-07-18T00:42:23;101351.80;;;16.45;55.36
54924;BME280;40825;52.270;20.984;2022-07-18T00:42:44;101356.25;;;16.44;55.24
54924;BME280;40825;52.270;20.984;2022-07-18T00:43:06;101355.26;;;16.44;55.31
54924;BME280;40825;52.270;20.984;2022-07-18T00:43:28;101353.05;;;16.44;55.19
54924;BME280;40825;52.270;20.984;2022-07-18T00:43:50;101356.53;;;16.45;55.30
54924;BME280;40825;52.270;20.984;2022-07-18T00:44:20;101354.34;;;16.45;55.26
54924;BME280;40825;52.270;20.984;2022-07-18T00:44:41;101360.23;;;16.43;55.29
54924;BME280;40825;52.270;20.984;2022-07-18T00:45:03;101356.38;;;16.41;55.26
54924;BME280;40825;52.270;20.984;2022-07-18T00:45:26;101357.52;;;16.40;55.34
54924;BME280;40825;52.270;20.984;2022-07-18T00:45:49;101355.30;;;16.39;55.38
54924;BME280;40825;52.270;20.984;2022-07-18T00:46:11;101356.00;;;16.40;55.33
54924;BME280;40825;52.270;20.984;2022-07-18T00:46:32;101355.59;;;16.39;55.45
54924;BME280;40825;52.270;20.984;2022-07-18T00:46:57;101353.83;;;16.38;55.39
54924;BME280;40825;52.270;20.984;2022-07-18T00:47:18;101356.53;;;16.37;55.40
54924;BME280;40825;52.270;20.984;2022-07-18T00:47:40;101357.27;;;16.35;55.43
54924;BME280;40825;52.270;20.984;2022-07-18T00:48:06;101360.95;;;16.34;55.48
54924;BME280;40825;52.270;20.984;2022-07-18T00:48:28;101357.73;;;16.33;55.48
54924;BME280;40825;52.270;20.984;2022-07-18T00:48:49;101356.16;;;16.31;55.46
54924;BME280;40825;52.270;20.984;2022-07-18T00:49:11;101356.95;;;16.31;55.47
54924;BME280;40825;52.270;20.984;2022-07-18T00:49:33;101355.81;;;16.30;55.42
54924;BME280;40825;52.270;20.984;2022-07-18T00:49:55;101360.04;;;16.29;55.58
54924;BME280;40825;52.270;20.984;2022-07-18T00:50:17;101356.86;;;16.28;55.65
54924;BME280;40825;52.270;20.984;2022-07-18T00:50:41;101358.77;;;16.27;55.59
54924;BME280;40825;52.270;20.984;2022-07-18T00:51:03;101358.38;;;16.24;55.57
54924;BME280;40825;52.270;20.984;2022-07-18T00:51:24;101355.64;;;16.23;55.67
54924;BME280;40825;52.270;20.984;2022-07-18T00:51:46;101356.26;;;16.22;55.69
54924;BME280;40825;52.270;20.984;2022-07-18T00:52:07;101357.38;;;16.22;55.78
54924;BME280;40825;52.270;20.984;2022-07-18T00:52:29;101363.39;;;16.23;55.75
54924;BME280;40825;52.270;20.984;2022-07-18T00:52:51;101358.66;;;16.22;55.66
54924;BME280;40825;52.270;20.984;2022-07-18T00:53:13;101357.96;;;16.22;55.67
54924;BME280;40825;52.270;20.984;2022-07-18T00:53:35;101357.95;;;16.22;55.73
54924;BME280;40825;52.270;20.984;2022-07-18T00:53:57;101357.67;;;16.21;55.82
54924;BME280;40825;52.270;20.984;2022-07-18T00:54:18;101354.81;;;16.21;55.91
54924;BME280;40825;52.270;20.984;2022-07-18T00:54:40;101356.59;;;16.21;55.89
54924;BME280;40825;52.270;20.984;2022-07-18T00:55:04;101356.55;;;16.21;55.88
54924;BME280;40825;52.270;20.984;2022-07-18T00:55:26;101353.98;;;16.22;55.94
54924;BME280;40825;52.270;20.984;2022-07-18T00:55:48;101352.48;;;16.21;56.06
54924;BME280;40825;52.270;20.984;2022-07-18T00:56:10;101352.83;;;16.21;56.15
54924;BME280;40825;52.270;20.984;2022-07-18T00:56:32;101354.64;;;16.21;56.19
54924;BME280;40825;52.270;20.984;2022-07-18T00:56:54;101353.60;;;16.22;56.29
54924;BME280;40825;52.270;20.984;2022-07-18T00:57:16;101354.02;;;16.23;56.36
54924;BME280;40825;52.270;20.984;2022-07-18T00:57:40;101354.57;;;16.25;56.34
54924;BME280;40825;52.270;20.984;2022-07-18T00:58:01;101358.34;;;16.26;56.33
54924;BME280;40825;52.270;20.984;2022-07-18T00:58:23;101356.61;;;16.27;56.39
54924;BME280;40825;52.270;20.984;2022-07-18T00:58:45;101354.11;;;16.27;56.30
54924;BME280;40825;52.270;20.984;2022-07-18T00:59:07;101351.59;;;16.27;56.33
54924;BME280;40825;52.270;20.984;2022-07-18T00:59:29;101354.91;;;16.26;56.28
54924;BME280;40825;52.270;20.984;2022-07-18T01:00:12;101356.63;;;16.18;56.09
54924;BME280;40825;52.270;20.984;2022-07-18T01:00:54;101353.75;;;16.06;56.10
54924;BME280;40825;52.270;20.984;2022-07-18T01:01:35;101354.73;;;16.00;56.24
54924;BME280;40825;52.270;20.984;2022-07-18T01:02:07;101357.26;;;15.97;56.33
54924;BME280;40825;52.270;20.984;2022-07-18T01:02:29;101356.30;;;15.98;56.55
54924;BME280;40825;52.270;20.984;2022-07-18T01:02:52;101358.43;;;15.99;56.44
54924;BME280;40825;52.270;20.984;2022-07-18T01:03:13;101356.93;;;16.01;56.41
54924;BME280;40825;52.270;20.984;2022-07-18T01:03:38;101357.05;;;16.03;56.46
54924;BME280;40825;52.270;20.984;2022-07-18T01:03:59;101357.73;;;16.04;56.40
54924;BME280;40825;52.270;20.984;2022-07-18T01:04:22;101353.30;;;16.03;56.44
54924;BME280;40825;52.270;20.984;2022-07-18T01:04:44;101356.02;;;16.03;56.47
54924;BME280;40825;52.270;20.984;2022-07-18T01:05:07;101357.59;;;16.01;56.52
54924;BME280;40825;52.270;20.984;2022-07-18T01:05:29;101357.92;;;16.02;56.51
54924;BME280;40825;52.270;20.984;2022-07-18T01:05:50;101359.09;;;16.01;56.53
54924;BME280;40825;52.270;20.984;2022-07-18T01:06:12;101355.40;;;16.01;56.48
54924;BME280;40825;52.270;20.984;2022-07-18T01:06:33;101356.73;;;16.00;56.52
54924;BME280;40825;52.270;20.984;2022-07-18T01:06:55;101356.52;;;15.99;56.58
54924;BME280;40825;52.270;20.984;2022-07-18T01:07:16;101360.06;;;15.98;56.49
54924;BME280;40825;52.270;20.984;2022-07-18T01:07:38;101355.39;;;15.96;56.58
54924;BME280;40825;52.270;20.984;2022-07-18T01:08:00;101356.80;;;15.95;56.67
54924;BME280;40825;52.270;20.984;2022-07-18T01:08:22;101359.52;;;15.95;56.63
54924;BME280;40825;52.270;20.984;2022-07-18T01:08:44;101360.91;;;15.94;56.68
54924;BME280;40825;52.270;20.984;2022-07-18T01:09:06;101358.08;;;15.94;56.72
54924;BME280;40825;52.270;20.984;2022-07-18T01:09:28;101356.58;;;15.92;56.57
54924;BME280;40825;52.270;20.984;2022-07-18T01:09:49;101356.66;;;15.92;56.70
54924;BME280;40825;52.270;20.984;2022-07-18T01:10:11;101355.42;;;15.92;56.76
54924;BME280;40825;52.270;20.984;2022-07-18T01:10:33;101356.70;;;15.93;56.74
54924;BME280;40825;52.270;20.984;2022-07-18T01:10:54;101356.95;;;15.92;56.84
54924;BME280;40825;52.270;20.984;2022-07-18T01:11:16;101357.11;;;15.93;56.83
54924;BME280;40825;52.270;20.984;2022-07-18T01:11:38;101357.11;;;15.93;56.92
54924;BME280;40825;52.270;20.984;2022-07-18T01:12:00;101361.35;;;15.93;56.92
54924;BME280;40825;52.270;20.984;2022-07-18T01:12:25;101357.71;;;15.94;56.93
54924;BME280;40825;52.270;20.984;2022-07-18T01:12:47;101358.57;;;15.94;56.98
54924;BME280;40825;52.270;20.984;2022-07-18T01:13:08;101363.05;;;15.94;57.13
54924;BME280;40825;52.270;20.984;2022-07-18T01:13:30;101360.52;;;15.95;57.19
54924;BME280;40825;52.270;20.984;2022-07-18T01:13:53;101361.80;;;15.97;57.26
54924;BME280;40825;52.270;20.984;2022-07-18T01:14:15;101362.60;;;15.98;57.13
54924;BME280;40825;52.270;20.984;2022-07-18T01:14:37;101364.92;;;15.98;57.16
54924;BME280;40825;52.270;20.984;2022-07-18T01:14:59;101361.65;;;15.98;57.10
54924;BME280;40825;52.270;20.984;2022-07-18T01:15:21;101359.07;;;15.97;57.18
54924;BME280;40825;52.270;20.984;2022-07-18T01:15:43;101364.00;;;15.97;57.17
54924;BME280;40825;52.270;20.984;2022-07-18T01:16:05;101364.49;;;15.97;57.28
54924;BME280;40825;52.270;20.984;2022-07-18T01:16:26;101362.02;;;15.97;57.31
54924;BME280;40825;52.270;20.984;2022-07-18T01:16:49;101361.27;;;15.97;57.28
54924;BME280;40825;52.270;20.984;2022-07-18T01:17:12;101360.56;;;15.97;57.26
54924;BME280;40825;52.270;20.984;2022-07-18T01:17:34;101362.92;;;15.96;57.16
54924;BME280;40825;52.270;20.984;2022-07-18T01:17:56;101362.96;;;15.98;57.24
54924;BME280;40825;52.270;20.984;2022-07-18T01:18:17;101362.92;;;15.98;57.33
54924;BME280;40825;52.270;20.984;2022-07-18T01:18:44;101365.84;;;15.99;57.39
54924;BME280;40825;52.270;20.984;2022-07-18T01:19:06;101363.73;;;16.00;57.14
54924;BME280;40825;52.270;20.984;2022-07-18T01:19:27;101360.95;;;15.99;57.27
54924;BME280;40825;52.270;20.984;2022-07-18T01:19:49;101363.20;;;16.00;57.22
54924;BME280;40825;52.270;20.984;2022-07-18T01:20:11;101363.10;;;16.01;57.08
54924;BME280;40825;52.270;20.984;2022-07-18T01:20:33;101363.86;;;16.02;57.11
54924;BME280;40825;52.270;20.984;2022-07-18T01:20:55;101366.98;;;16.03;57.08
54924;BME280;40825;52.270;20.984;2022-07-18T01:21:17;101365.69;;;16.03;57.03
54924;BME280;40825;52.270;20.984;2022-07-18T01:21:38;101361.53;;;16.03;57.04
54924;BME280;40825;52.270;20.984;2022-07-18T01:22:01;101362.11;;;16.03;57.01
54924;BME280;40825;52.270;20.984;2022-07-18T01:22:24;101369.16;;;16.02;56.95
54924;BME280;40825;52.270;20.984;2022-07-18T01:22:46;101368.29;;;16.02;56.94
54924;BME280;40825;52.270;20.984;2022-07-18T01:23:07;101366.05;;;16.01;57.07
54924;BME280;40825;52.270;20.984;2022-07-18T01:23:29;101367.66;;;16.01;56.99
54924;BME280;40825;52.270;20.984;2022-07-18T01:23:51;101370.27;;;16.01;56.99
54924;BME280;40825;52.270;20.984;2022-07-18T01:24:12;101369.39;;;16.00;56.91
54924;BME280;40825;52.270;20.984;2022-07-18T01:24:34;101370.15;;;16.00;57.00
54924;BME280;40825;52.270;20.984;2022-07-18T01:24:55;101371.77;;;15.99;57.02
54924;BME280;40825;52.270;20.984;2022-07-18T01:25:17;101368.00;;;15.99;56.98
54924;BME280;40825;52.270;20.984;2022-07-18T01:25:38;101367.50;;;15.99;57.02
54924;BME280;40825;52.270;20.984;2022-07-18T01:26:00;101368.81;;;15.98;57.01
54924;BME280;40825;52.270;20.984;2022-07-18T01:26:21;101367.93;;;15.98;57.08
54924;BME280;40825;52.270;20.984;2022-07-18T01:26:43;101367.31;;;15.97;57.08
54924;BME280;40825;52.270;20.984;2022-07-18T01:27:05;101367.15;;;15.97;57.13
54924;BME280;40825;52.270;20.984;2022-07-18T01:27:27;101369.73;;;15.97;57.14
54924;BME280;40825;52.270;20.984;2022-07-18T01:27:48;101369.92;;;15.97;57.18
54924;BME280;40825;52.270;20.984;2022-07-18T01:28:10;101370.88;;;15.96;57.16
54924;BME280;40825;52.270;20.984;2022-07-18T01:28:32;101369.17;;;15.97;57.17
54924;BME280;40825;52.270;20.984;2022-07-18T01:28:53;101366.61;;;15.97;57.12
54924;BME280;40825;52.270;20.984;2022-07-18T01:29:15;101369.17;;;15.97;57.20
54924;BME280;40825;52.270;20.984;2022-07-18T01:29:37;101370.84;;;15.96;57.28
54924;BME280;40825;52.270;20.984;2022-07-18T01:29:58;101373.20;;;15.98;57.34
54924;BME280;40825;52.270;20.984;2022-07-18T01:30:19;101372.79;;;15.98;57.32
54924;BME280;40825;52.270;20.984;2022-07-18T01:30:41;101374.20;;;15.98;57.32
54924;BME280;40825;52.270;20.984;2022-07-18T01:31:03;101373.32;;;15.98;57.34
54924;BME280;40825;52.270;20.984;2022-07-18T01:31:25;101369.35;;;15.98;57.29
54924;BME280;40825;52.270;20.984;2022-07-18T01:31:46;101373.13;;;15.98;57.31
54924;BME280;40825;52.270;20.984;2022-07-18T01:32:09;101372.48;;;15.97;57.34
54924;BME280;40825;52.270;20.984;2022-07-18T01:32:31;101370.05;;;15.97;57.28
54924;BME280;40825;52.270;20.984;2022-07-18T01:33:01;101370.55;;;15.95;57.28
54924;BME280;40825;52.270;20.984;2022-07-18T01:33:23;101370.98;;;15.92;57.21
54924;BME280;40825;52.270;20.984;2022-07-18T01:33:44;101374.86;;;15.90;57.34
54924;BME280;40825;52.270;20.984;2022-07-18T01:34:06;101376.88;;;15.89;57.41
54924;BME280;40825;52.270;20.984;2022-07-18T01:34:28;101376.30;;;15.90;57.42
54924;BME280;40825;52.270;20.984;2022-07-18T01:34:50;101374.70;;;15.90;57.42
54924;BME280;40825;52.270;20.984;2022-07-18T01:35:12;101371.50;;;15.89;57.32
54924;BME280;40825;52.270;20.984;2022-07-18T01:35:34;101373.23;;;15.89;57.34
54924;BME280;40825;52.270;20.984;2022-07-18T01:35:57;101377.00;;;15.89;57.38
54924;BME280;40825;52.270;20.984;2022-07-18T01:36:19;101374.80;;;15.88;57.37
54924;BME280;40825;52.270;20.984;2022-07-18T01:36:40;101375.02;;;15.87;57.30
54924;BME280;40825;52.270;20.984;2022-07-18T01:37:04;101373.61;;;15.87;57.31
54924;BME280;40825;52.270;20.984;2022-07-18T01:37:26;101373.39;;;15.87;57.34
54924;BME280;40825;52.270;20.984;2022-07-18T01:37:53;101373.35;;;15.87;57.34
54924;BME280;40825;52.270;20.984;2022-07-18T01:38:15;101370.27;;;15.84;57.45
54924;BME280;40825;52.270;20.984;2022-07-18T01:38:39;101375.88;;;15.82;57.32
54924;BME280;40825;52.270;20.984;2022-07-18T01:39:00;101377.90;;;15.82;57.45
54924;BME280;40825;52.270;20.984;2022-07-18T01:39:22;101374.81;;;15.80;57.56
54924;BME280;40825;52.270;20.984;2022-07-18T01:39:45;101378.30;;;15.81;57.40
54924;BME280;40825;52.270;20.984;2022-07-18T01:40:09;101376.19;;;15.81;57.42
54924;BME280;40825;52.270;20.984;2022-07-18T01:40:30;101375.27;;;15.80;57.39
54924;BME280;40825;52.270;20.984;2022-07-18T01:40:52;101372.75;;;15.78;57.38
54924;BME280;40825;52.270;20.984;2022-07-18T01:41:13;101372.70;;;15.78;57.42
54924;BME280;40825;52.270;20.984;2022-07-18T01:41:35;101374.73;;;15.77;57.51
54924;BME280;40825;52.270;20.984;2022-07-18T01:42:02;101373.98;;;15.77;57.56
54924;BME280;40825;52.270;20.984;2022-07-18T01:42:24;101373.61;;;15.76;57.44
54924;BME280;40825;52.270;20.984;2022-07-18T01:42:46;101372.41;;;15.74;57.58
54924;BME280;40825;52.270;20.984;2022-07-18T01:43:07;101376.67;;;15.75;57.65
54924;BME280;40825;52.270;20.984;2022-07-18T01:43:29;101376.27;;;15.75;57.76
54924;BME280;40825;52.270;20.984;2022-07-18T01:43:51;101373.86;;;15.76;57.80
54924;BME280;40825;52.270;20.984;2022-07-18T01:44:13;101374.35;;;15.76;57.77
54924;BME280;40825;52.270;20.984;2022-07-18T01:44:36;101372.33;;;15.76;57.81
54924;BME280;40825;52.270;20.984;2022-07-18T01:44:58;101372.99;;;15.76;57.85
54924;BME280;40825;52.270;20.984;2022-07-18T01:45:20;101374.52;;;15.75;57.79
54924;BME280;40825;52.270;20.984;2022-07-18T01:45:42;101374.06;;;15.74;57.89
54924;BME280;40825;52.270;20.984;2022-07-18T01:46:03;101374.77;;;15.74;57.92
54924;BME280;40825;52.270;20.984;2022-07-18T01:46:25;101375.02;;;15.75;57.90
54924;BME280;40825;52.270;20.984;2022-07-18T01:46:46;101372.66;;;15.75;57.88
54924;BME280;40825;52.270;20.984;2022-07-18T01:47:10;101369.17;;;15.76;57.86
54924;BME280;40825;52.270;20.984;2022-07-18T01:47:32;101370.88;;;15.75;57.86
54924;BME280;40825;52.270;20.984;2022-07-18T01:47:53;101371.37;;;15.74;57.96
54924;BME280;40825;52.270;20.984;2022-07-18T01:48:15;101372.45;;;15.74;57.93
54924;BME280;40825;52.270;20.984;2022-07-18T01:48:38;101371.64;;;15.73;57.94
54924;BME280;40825;52.270;20.984;2022-07-18T01:49:00;101372.88;;;15.72;57.91
54924;BME280;40825;52.270;20.984;2022-07-18T01:49:22;101372.59;;;15.72;57.96
54924;BME280;40825;52.270;20.984;2022-07-18T01:49:44;101371.80;;;15.71;57.93
54924;BME280;40825;52.270;20.984;2022-07-18T01:50:06;101370.30;;;15.70;57.94
54924;BME280;40825;52.270;20.984;2022-07-18T01:50:28;101369.27;;;15.68;57.91
54924;BME280;40825;52.270;20.984;2022-07-18T01:50:51;101366.70;;;15.67;57.92
54924;BME280;40825;52.270;20.984;2022-07-18T01:51:12;101368.06;;;15.66;57.90
54924;BME280;40825;52.270;20.984;2022-07-18T01:51:34;101366.44;;;15.65;57.92
54924;BME280;40825;52.270;20.984;2022-07-18T01:51:56;101368.88;;;15.64;57.95
54924;BME280;40825;52.270;20.984;2022-07-18T01:52:18;101367.05;;;15.63;58.13
54924;BME280;40825;52.270;20.984;2022-07-18T01:52:40;101368.91;;;15.62;57.97
54924;BME280;40825;52.270;20.984;2022-07-18T01:53:01;101366.55;;;15.61;58.06
54924;BME280;40825;52.270;20.984;2022-07-18T01:53:23;101368.91;;;15.61;58.03
54924;BME280;40825;52.270;20.984;2022-07-18T01:53:55;101368.45;;;15.60;58.06
54924;BME280;40825;52.270;20.984;2022-07-18T01:54:20;101366.99;;;15.58;57.97
54924;BME280;40825;52.270;20.984;2022-07-18T01:54:42;101370.37;;;15.55;58.12
54924;BME280;40825;52.270;20.984;2022-07-18T01:55:05;101368.30;;;15.56;58.18